Time;durP1;ratioP1;P1;durP2;ratioP2;P2;SDS_P1;SDS_P2;PMS_P1;PMS_P2;Temp;Humidity;BMP_temperature;BMP_pressure;BME280_temperature;BME280_humidity;BME280_pressure;Samples;Min_cycle;Max_cycle;Signal;HPM_P1;HPM_P2
2022/07/12 00:00:23;;;;;;;5.12;0.80;;;;;;;15.70;57.31;100755.19;5590959;31;33891;-66
2022/07/12 00:03:26;;;;;;;2.78;1.17;;;;;;;15.74;57.10;100753.78;5590843;31;34360;-66
2022/07/12 00:06:29;;;;;;;4.82;0.75;;;;;;;15.78;56.94;100759.59;5590168;31;35282;-66
2022/07/12 00:09:32;;;;;;;2.95;0.80;;;;;;;15.70;57.24;100755.19;5590844;31;35272;-66
2022/07/12 00:12:34;;;;;;;4.50;1.12;;;;;;;15.63;57.32;100762.34;5590873;31;34610;-66
2022/07/12 00:15:37;;;;;;;2.40;0.80;;;;;;;15.53;57.67;100762.66;5590823;31;34048;-66
2022/07/12 00:18:41;;;;;;;3.35;1.00;;;;;;;15.39;58.10;100757.31;5590059;31;34438;-66
2022/07/12 00:21:44;;;;;;;3.53;1.00;;;;;;;15.35;58.33;100759.53;5590859;31;34188;-66
2022/07/12 00:24:47;;;;;;;1.80;0.80;;;;;;;15.25;58.60;100753.66;5590688;31;33930;-67
2022/07/12 00:27:50;;;;;;;3.37;1.20;;;;;;;15.27;58.71;100754.31;5590671;31;33919;-66
2022/07/12 00:30:52;;;;;;;4.68;1.00;;;;;;;15.22;59.00;100751.38;5590608;31;35221;-67
2022/07/12 00:33:55;;;;;;;1.98;0.90;;;;;;;15.18;59.49;100753.59;5590658;31;34190;-66
2022/07/12 00:36:57;;;;;;;3.10;0.95;;;;;;;15.07;60.15;100755.91;5590716;31;34326;-67
2022/07/12 00:40:08;;;;;;;3.00;0.90;;;;;;;14.98;60.14;100754.38;5590575;31;34714;-66
2022/07/12 00:43:11;;;;;;;2.00;0.90;;;;;;;15.00;60.59;100749.69;5589814;31;33948;-66
2022/07/12 00:46:17;;;;;;;1.98;0.80;;;;;;;14.99;60.61;100761.38;5590830;31;34081;-66
2022/07/12 00:49:22;;;;;;;1.85;0.70;;;;;;;15.05;60.50;100757.97;5590577;31;34627;-66
2022/07/12 00:52:25;;;;;;;2.17;0.73;;;;;;;15.00;60.39;100761.22;5590535;31;34378;-66
2022/07/12 00:55:27;;;;;;;2.03;0.70;;;;;;;15.11;60.01;100765.22;5590529;31;34042;-66
2022/07/12 00:58:31;;;;;;;5.65;1.02;;;;;;;15.29;59.99;100770.16;5590513;31;34692;-66
2022/07/12 01:01:33;;;;;;;2.00;0.73;;;;;;;15.28;59.50;100768.50;5590533;31;35144;-66
2022/07/12 01:04:37;;;;;;;3.40;1.00;;;;;;;15.31;59.46;100768.94;5590356;31;34246;-66
2022/07/12 01:07:44;;;;;;;1.60;0.88;;;;;;;15.33;59.48;100768.78;5590133;31;34130;-66
2022/07/12 01:10:48;;;;;;;4.18;0.95;;;;;;;15.34;59.45;100773.94;5590226;31;34578;-67
2022/07/12 01:13:53;;;;;;;1.75;0.80;;;;;;;15.37;59.54;100772.72;5590388;31;34043;-68
2022/07/12 01:16:57;;;;;;;2.50;0.85;;;;;;;15.29;59.81;100770.16;5590759;31;33886;-66
2022/07/12 01:20:00;;;;;;;3.05;1.00;;;;;;;15.22;60.22;100768.25;5590318;31;33964;-66
2022/07/12 01:23:03;;;;;;;7.53;1.00;;;;;;;15.21;60.14;100766.56;5590323;31;35297;-66
2022/07/12 01:26:05;;;;;;;1.83;0.88;;;;;;;15.11;59.98;100768.72;5590124;31;35116;-66
2022/07/12 01:29:09;;;;;;;1.67;0.70;;;;;;;15.03;60.29;100768.84;5590049;31;33983;-66
2022/07/12 01:32:26;;;;;;;2.12;0.90;;;;;;;15.13;59.84;100764.03;5590284;31;34037;-67
2022/07/12 01:35:31;;;;;;;1.83;0.82;;;;;;;15.10;59.75;100768.94;5590131;31;34873;-65
2022/07/12 01:38:33;;;;;;;2.62;1.02;;;;;;;14.88;60.40;100761.84;5590476;31;33938;-66
2022/07/12 01:41:36;;;;;;;2.95;0.90;;;;;;;14.83;60.62;100757.06;5589424;31;32676;-67
2022/07/12 01:44:39;;;;;;;3.53;1.12;;;;;;;14.82;60.73;100759.91;5590412;31;34031;-65
2022/07/12 01:47:42;;;;;;;6.35;1.17;;;;;;;14.78;60.96;100746.94;5590178;31;34012;-65
2022/07/12 01:50:45;;;;;;;2.75;1.15;;;;;;;14.73;61.40;100748.50;5590215;31;35150;-68
2022/07/12 01:53:47;;;;;;;4.20;0.90;;;;;;;14.63;61.70;100742.63;5590056;31;33916;-66
2022/07/12 01:56:50;;;;;;;2.45;0.90;;;;;;;14.55;61.90;100740.88;5590033;31;34639;-65
2022/07/12 01:59:53;;;;;;;4.28;1.15;;;;;;;14.54;61.96;100741.06;5590026;31;33925;-68
2022/07/12 02:02:56;;;;;;;1.70;0.82;;;;;;;14.43;62.33;100752.19;5590089;31;34528;-68
2022/07/12 02:06:00;;;;;;;2.08;0.88;;;;;;;14.45;62.42;100744.84;5589729;31;34777;-68
2022/07/12 02:09:02;;;;;;;2.78;1.00;;;;;;;14.39;62.81;100746.41;5589966;31;34376;-65
2022/07/12 02:12:05;;;;;;;3.10;0.82;;;;;;;14.37;62.79;100747.62;5589897;31;34075;-65
2022/07/12 02:15:08;;;;;;;4.62;1.10;;;;;;;14.37;62.84;100748.44;5589944;31;34263;-66
2022/07/12 02:18:11;;;;;;;5.43;0.90;;;;;;;14.38;62.95;100742.06;5589860;31;34557;-65
2022/07/12 02:21:14;;;;;;;5.43;1.20;;;;;;;14.43;62.85;100745.03;5588552;31;35177;-66
2022/07/12 02:24:17;;;;;;;4.57;0.80;;;;;;;14.38;64.04;100744.75;5589751;31;33881;-65
2022/07/12 02:27:19;;;;;;;2.03;0.90;;;;;;;14.44;63.66;100743.19;5589610;31;34066;-65
2022/07/12 02:30:22;;;;;;;2.28;0.80;;;;;;;14.45;63.13;100744.84;5589875;31;35258;-65
2022/07/12 02:33:24;;;;;;;2.95;1.05;;;;;;;14.39;63.33;100746.41;5589715;31;34286;-68
2022/07/12 02:36:27;;;;;;;3.12;0.88;;;;;;;14.32;63.57;100745.47;5589658;31;34472;-65
2022/07/12 02:39:30;;;;;;;2.65;0.80;;;;;;;14.32;63.80;100748.13;5589743;31;34000;-65
2022/07/12 02:42:32;;;;;;;3.05;0.80;;;;;;;14.39;63.41;100754.41;5588783;31;34582;-66
2022/07/12 02:45:35;;;;;;;3.55;0.90;;;;;;;14.36;63.48;100757.47;5589551;31;34004;-65
2022/07/12 02:48:39;;;;;;;3.55;1.10;;;;;;;14.36;63.62;100749.44;5589841;31;34575;-67
2022/07/12 02:51:41;;;;;;;5.45;1.00;;;;;;;14.24;64.10;100758.87;5589557;31;34041;-67
2022/07/12 02:54:44;;;;;;;1.92;0.73;;;;;;;14.18;64.58;100760.44;5589589;31;33971;-67
2022/07/12 02:57:46;;;;;;;3.62;0.90;;;;;;;14.20;64.52;100760.25;5589730;31;33930;-66
2022/07/12 03:00:49;;;;;;;3.35;1.02;;;;;;;14.35;64.49;100761.09;5589479;31;34104;-67
2022/07/12 03:03:52;;;;;;;3.45;0.90;;;;;;;14.28;64.39;100763.66;5589326;31;35211;-67
2022/07/12 03:06:55;;;;;;;2.08;0.88;;;;;;;14.23;65.00;100759.91;5588586;31;34868;-67
2022/07/12 03:09:57;;;;;;;1.35;0.77;;;;;;;14.34;64.49;100762.94;5589410;31;34318;-66
2022/07/12 03:13:00;;;;;;;2.10;0.95;;;;;;;14.31;65.01;100768.66;5589378;31;34022;-67
2022/07/12 03:16:03;;;;;;;2.35;0.80;;;;;;;14.39;64.37;100759.75;5589291;31;34716;-67
2022/07/12 03:19:06;;;;;;;2.65;1.00;;;;;;;14.41;64.42;100762.25;5588527;31;32617;-67
2022/07/12 03:22:08;;;;;;;1.92;0.90;;;;;;;14.49;64.74;100770.16;5588436;31;34225;-66
2022/07/12 03:25:12;;;;;;;3.47;0.93;;;;;;;14.61;64.06;100774.88;5588365;31;32726;-67
2022/07/12 03:28:15;;;;;;;4.93;0.70;;;;;;;14.69;63.39;100765.94;5588880;31;33928;-67
2022/07/12 03:31:17;;;;;;;2.58;0.77;;;;;;;14.77;63.03;100771.16;5588518;31;33958;-67
2022/07/12 03:34:20;;;;;;;3.08;0.82;;;;;;;14.81;63.14;100777.81;5589030;31;34664;-67
2022/07/12 03:37:23;;;;;;;1.48;0.82;;;;;;;14.85;62.87;100780.94;5588880;31;34921;-67
2022/07/12 03:40:25;;;;;;;1.20;0.80;;;;;;;14.87;62.96;100785.06;5588886;31;33896;-67
2022/07/12 03:43:28;;;;;;;1.55;0.80;;;;;;;14.92;62.68;100779.16;5588743;31;34013;-67
2022/07/12 03:46:32;;;;;;;1.15;0.77;;;;;;;15.02;62.21;100777.03;5588683;31;33898;-67
2022/07/12 03:49:35;;;;;;;1.98;0.95;;;;;;;15.12;62.00;100778.41;5588656;31;34079;-67
2022/07/12 03:52:39;;;;;;;2.28;0.90;;;;;;;15.18;61.63;100776.81;5574846;31;33894;-67
2022/07/12 03:55:42;;;;;;;2.65;1.20;;;;;;;15.20;61.73;100780.94;5588555;31;33936;-67
2022/07/12 03:58:44;;;;;;;5.30;0.90;;;;;;;15.27;61.62;100783.72;5588839;31;34629;-67
2022/07/12 04:01:47;;;;;;;2.47;0.80;;;;;;;15.28;61.62;100780.03;5588450;31;34021;-67
2022/07/12 04:04:51;;;;;;;3.37;0.90;;;;;;;15.46;61.34;100784.94;5588450;31;34698;-67
2022/07/12 04:07:54;;;;;;;2.55;0.90;;;;;;;15.35;61.48;100783.59;5588156;31;34822;-68
2022/07/12 04:10:57;;;;;;;1.15;0.70;;;;;;;15.33;61.87;100787.47;5588322;31;33913;-68
2022/07/12 04:13:59;;;;;;;1.80;0.85;;;;;;;15.39;61.51;100794.75;5587611;31;32959;-68
2022/07/12 04:17:03;;;;;;;2.83;1.02;;;;;;;15.38;61.52;100790.41;5588100;31;34037;-68
2022/07/12 04:20:06;;;;;;;1.95;0.93;;;;;;;15.43;61.63;100782.66;5587254;31;34104;-68
2022/07/12 04:23:09;;;;;;;4.07;0.98;;;;;;;15.40;61.68;100786.53;5587465;31;32509;-67
2022/07/12 04:26:12;;;;;;;2.10;0.80;;;;;;;15.50;62.23;100791.56;5587992;31;34571;-67
2022/07/12 04:29:19;;;;;;;3.50;0.95;;;;;;;15.48;64.39;100788.28;5587747;31;34036;-66
2022/07/12 04:32:21;;;;;;;6.43;0.88;;;;;;;15.42;63.82;100795.19;5587971;31;33956;-67
2022/07/12 04:35:24;;;;;;;4.57;1.20;;;;;;;15.47;62.80;100791.94;5587805;31;34372;-68
2022/07/12 04:38:27;;;;;;;3.67;1.00;;;;;;;15.60;62.89;100795.63;5587933;31;34343;-67
2022/07/12 04:41:29;;;;;;;1.42;0.70;;;;;;;15.57;62.90;100785.31;5588187;31;34442;-68
2022/07/12 04:44:32;;;;;;;1.35;0.88;;;;;;;15.78;62.33;100786.34;5589357;31;34742;-67
2022/07/12 04:47:36;;;;;;;3.75;0.90;;;;;;;15.86;62.09;100789.72;5590856;31;34589;-68
2022/07/12 04:50:39;;;;;;;4.65;1.10;;;;;;;15.93;61.53;100784.41;5590569;31;33861;-67
2022/07/12 04:53:42;;;;;;;1.95;0.90;;;;;;;15.97;60.96;100781.16;5590905;31;33822;-67
2022/07/12 04:56:44;;;;;;;6.22;1.27;;;;;;;16.05;60.63;100774.84;5590564;31;33940;-68
2022/07/12 04:59:47;;;;;;;3.08;1.12;;;;;;;16.17;60.27;100780.50;5590508;31;34688;-68
2022/07/12 05:02:50;;;;;;;2.95;0.88;;;;;;;16.20;60.14;100785.47;5590520;31;34246;-68
2022/07/12 05:05:54;;;;;;;3.05;0.80;;;;;;;16.33;59.50;100791.72;5590460;31;34667;-67
2022/07/12 05:08:58;;;;;;;1.95;0.95;;;;;;;16.39;59.36;100795.47;5589623;31;34194;-66
2022/07/12 05:12:00;;;;;;;2.60;1.20;;;;;;;16.41;59.23;100790.78;5590205;31;34645;-68
2022/07/12 05:15:04;;;;;;;3.37;0.95;;;;;;;16.51;59.35;100794.72;5590435;31;34613;-67
2022/07/12 05:18:08;;;;;;;3.12;1.10;;;;;;;16.57;59.40;100794.97;5590281;31;34838;-67
2022/07/12 05:21:11;;;;;;;3.33;1.02;;;;;;;16.63;59.23;100792.38;5590198;31;33974;-67
2022/07/12 05:24:13;;;;;;;4.53;0.98;;;;;;;16.75;59.25;100795.34;5590111;31;34106;-67
2022/07/12 05:27:16;;;;;;;6.37;1.00;;;;;;;16.86;59.02;100802.81;5589813;31;33958;-67
2022/07/12 05:30:19;;;;;;;4.20;1.55;;;;;;;16.81;58.92;100802.56;5590005;31;33957;-68
2022/07/12 05:33:22;;;;;;;4.62;1.12;;;;;;;16.85;59.24;100806.50;5590080;31;33929;-69
2022/07/12 05:36:25;;;;;;;3.47;0.70;;;;;;;16.84;58.49;100803.03;5590149;31;34306;-68
2022/07/12 05:39:27;;;;;;;3.10;0.98;;;;;;;16.81;58.42;100806.06;5590070;31;34144;-68
2022/07/12 05:42:30;;;;;;;4.97;1.10;;;;;;;16.89;58.05;100805.91;5590074;31;34040;-67
2022/07/12 05:45:33;;;;;;;2.85;0.93;;;;;;;16.97;57.91;100814.81;5589904;31;33971;-68
2022/07/12 05:48:37;;;;;;;3.62;0.90;;;;;;;17.14;57.83;100811.59;5589791;31;33889;-67
2022/07/12 05:55:01;;;;;;;3.20;0.95;;;;;;;17.45;56.89;100827.19;5588765;31;34229;-68
2022/07/12 05:58:04;;;;;;;4.40;1.00;;;;;;;17.55;57.03;100824.13;5589180;31;34642;-67
2022/07/12 06:01:07;;;;;;;4.82;0.90;;;;;;;17.75;56.04;100819.66;5589724;31;33907;-67
2022/07/12 06:04:09;;;;;;;3.45;0.93;;;;;;;17.91;55.31;100815.78;5589143;31;34332;-67
2022/07/12 06:07:12;;;;;;;5.55;1.05;;;;;;;18.10;55.10;100813.09;5589778;31;34720;-67
2022/07/12 06:10:15;;;;;;;2.28;0.95;;;;;;;18.18;54.34;100815.56;5575771;31;33243;-68
2022/07/12 06:13:17;;;;;;;3.12;0.60;;;;;;;18.20;53.93;100812.69;5589611;31;34592;-67
2022/07/12 06:16:20;;;;;;;2.62;0.85;;;;;;;18.08;53.82;100815.16;5588773;31;32868;-67
2022/07/12 06:19:23;;;;;;;2.95;0.65;;;;;;;18.26;54.05;100806.47;5589633;31;34612;-67
2022/07/12 06:22:26;;;;;;;4.47;0.70;;;;;;;18.41;53.37;100804.38;5589610;31;34103;-66
2022/07/12 06:25:28;;;;;;;4.22;0.90;;;;;;;18.37;53.08;100802.34;5589674;31;33969;-68
2022/07/12 06:28:45;;;;;;;5.18;0.82;;;;;;;18.64;52.35;100812.84;5589377;31;34751;-67
2022/07/12 06:31:48;;;;;;;2.50;0.80;;;;;;;18.83;51.46;100800.41;5589948;31;33939;-65
2022/07/12 06:34:50;;;;;;;3.37;0.60;;;;;;;19.13;50.28;100808.78;5589512;31;34650;-69
2022/07/12 06:37:53;;;;;;;2.45;0.60;;;;;;;19.28;49.77;100813.91;5589426;31;33980;-66
2022/07/12 06:40:56;;;;;;;3.70;0.82;;;;;;;19.29;49.33;100807.47;5589224;31;34932;-66
2022/07/12 06:43:58;;;;;;;4.60;0.80;;;;;;;19.60;48.87;100809.44;5589272;31;33931;-66
2022/07/12 06:47:02;;;;;;;7.20;0.70;;;;;;;19.55;48.91;100817.31;5589094;31;34734;-67
2022/07/12 06:50:05;;;;;;;2.05;0.77;;;;;;;19.81;47.42;100812.59;5589261;31;34844;-67
2022/07/12 06:53:11;;;;;;;3.80;0.50;;;;;;;19.47;48.43;100811.13;5589358;31;33967;-67
2022/07/12 06:56:15;;;;;;;2.70;0.90;;;;;;;19.51;48.13;100808.84;5588760;31;33936;-67
2022/07/12 06:59:17;;;;;;;1.67;0.70;;;;;;;19.68;48.17;100817.25;5589823;31;34118;-68
2022/07/12 07:02:20;;;;;;;5.55;0.60;;;;;;;19.89;46.98;100822.28;5589503;31;33916;-67
2022/07/12 07:05:23;;;;;;;1.35;0.60;;;;;;;20.21;46.59;100814.97;5589349;31;33891;-67
2022/07/12 07:08:25;;;;;;;2.47;0.62;;;;;;;20.57;45.97;100817.81;5587994;31;34730;-67
2022/07/12 07:11:28;;;;;;;1.58;0.70;;;;;;;20.48;45.62;100815.63;5589007;31;34641;-65
2022/07/12 07:14:31;;;;;;;2.17;0.70;;;;;;;20.97;44.19;100806.56;5589163;31;34584;-68
2022/07/12 07:17:34;;;;;;;0.90;0.47;;;;;;;21.89;42.30;100810.75;5588524;31;34533;-67
2022/07/12 07:20:40;;;;;;;1.60;0.60;;;;;;;21.78;42.23;100811.56;5589186;31;34228;-68
2022/07/12 07:23:43;;;;;;;2.15;0.60;;;;;;;21.77;41.87;100812.63;5589197;31;34006;-66
2022/07/12 07:26:46;;;;;;;1.87;0.70;;;;;;;20.96;43.09;100810.34;5588821;31;34541;-67
2022/07/12 07:33:10;;;;;;;2.72;0.80;;;;;;;21.07;43.72;100809.56;5588613;31;34080;-66
2022/07/12 07:36:14;;;;;;;1.20;0.60;;;;;;;21.73;42.43;100808.72;5589141;31;33954;-67
2022/07/12 07:39:16;;;;;;;7.30;0.70;;;;;;;21.64;41.79;100809.03;5588742;31;34659;-68
2022/07/12 07:42:23;;;;;;;1.35;0.70;;;;;;;22.83;39.99;100804.41;5587967;31;34075;-68
2022/07/12 07:45:25;;;;;;;4.82;0.60;;;;;;;23.66;38.25;100812.87;5588051;31;32857;-67
2022/07/12 07:48:28;;;;;;;0.90;0.57;;;;;;;23.05;38.65;100808.09;5588788;31;34582;-67
2022/07/12 07:51:31;;;;;;;3.40;0.65;;;;;;;22.62;40.04;100799.56;5588515;31;33990;-69
2022/07/12 07:54:36;;;;;;;2.85;0.60;;;;;;;23.26;38.39;100799.34;5588560;31;33912;-67
2022/07/12 07:57:47;;;;;;;1.50;0.60;;;;;;;23.03;38.71;100795.88;5587152;31;34133;-68
2022/07/12 08:01:04;;;;;;;2.33;0.60;;;;;;;24.68;35.87;100799.91;5588984;31;34655;-67
2022/07/12 08:04:11;;;;;;;3.35;0.57;;;;;;;23.82;36.52;100801.22;5587620;31;33292;-67
2022/07/12 08:07:15;;;;;;;1.23;0.68;;;;;;;23.41;37.45;100806.94;5588132;31;34080;-67
2022/07/12 08:10:43;;;;;;;5.47;0.60;;;;;;;23.77;37.19;100800.31;5588240;31;34032;-67
2022/07/12 08:13:46;;;;;;;2.50;0.60;;;;;;;23.98;36.04;100806.91;5587574;31;35408;-68
2022/07/12 08:16:59;;;;;;;2.75;0.60;;;;;;;24.19;36.05;100795.38;5587232;31;33324;-66
2022/07/12 08:20:23;;;;;;;2.85;0.52;;;;;;;25.07;34.51;100799.91;5590049;31;33472;-68
2022/07/12 08:23:48;;;;;;;1.40;0.70;;;;;;;25.50;33.81;100802.56;5590084;31;32805;-67
2022/07/12 08:26:51;;;;;;;3.97;0.50;;;;;;;24.85;34.33;100808.00;5590401;31;33919;-67
2022/07/12 08:29:54;;;;;;;2.62;0.80;;;;;;;25.46;33.04;100803.34;5590481;31;34147;-66
2022/07/12 08:32:56;;;;;;;1.40;0.40;;;;;;;25.05;33.68;100807.47;5590643;31;34124;-67
2022/07/12 08:35:59;;;;;;;2.05;0.55;;;;;;;25.39;32.73;100806.25;5590611;31;34127;-67
2022/07/12 08:39:02;;;;;;;3.22;0.50;;;;;;;25.80;32.15;100804.78;5590517;31;34351;-67
2022/07/12 08:42:07;;;;;;;1.52;0.60;;;;;;;26.54;31.19;100785.78;5590414;31;34461;-67
2022/07/12 08:45:10;;;;;;;5.25;0.62;;;;;;;27.22;30.71;100792.13;5589058;31;33982;-66
2022/07/12 08:48:13;;;;;;;2.12;0.62;;;;;;;27.08;30.08;100791.81;5590113;31;34267;-67
2022/07/12 08:51:20;;;;;;;3.12;0.40;;;;;;;26.57;30.77;100792.63;5590064;31;34009;-68
2022/07/12 08:54:23;;;;;;;1.52;0.65;;;;;;;26.52;30.53;100779.00;5590429;31;34010;-67
2022/07/12 08:57:31;;;;;;;1.83;0.50;;;;;;;26.17;31.23;100776.81;5590021;31;35167;-67
2022/07/12 09:00:35;;;;;;;1.25;0.45;;;;;;;26.68;30.12;100773.34;5590098;31;33965;-68
2022/07/12 09:03:39;;;;;;;1.05;0.40;;;;;;;27.38;29.26;100784.81;5589366;31;33312;-67
2022/07/12 09:06:42;;;;;;;2.70;0.40;;;;;;;25.80;30.70;100784.94;5590387;31;34253;-66
2022/07/12 09:09:48;;;;;;;1.40;0.40;;;;;;;26.07;30.92;100787.62;5590278;31;33911;-67
2022/07/12 09:12:51;;;;;;;2.42;0.50;;;;;;;25.45;32.09;100779.97;5589541;31;32650;-65
2022/07/12 09:16:11;;;;;;;1.87;0.45;;;;;;;26.15;31.14;100782.50;5589462;31;34252;-68
2022/07/12 09:19:19;;;;;;;1.62;0.70;;;;;;;26.45;31.03;100784.66;5590105;31;33858;-69
2022/07/12 09:22:21;;;;;;;3.87;0.68;;;;;;;27.57;29.30;100785.97;5590571;31;34051;-68
2022/07/12 09:25:24;;;;;;;4.87;0.65;;;;;;;27.43;29.90;100782.09;5590129;31;33911;-67
2022/07/12 09:28:27;;;;;;;3.35;0.77;;;;;;;27.91;29.04;100784.38;5589600;31;34073;-69
2022/07/12 09:38:30;;;;;;;1.40;0.55;;;;;;;27.79;28.52;100762.00;5589411;31;34263;-66
2022/07/12 09:41:33;;;;;;;3.08;0.40;;;;;;;28.34;26.85;100763.09;5589169;31;34816;-67
2022/07/12 09:44:37;;;;;;;5.45;0.60;;;;;;;28.28;27.15;100764.19;5589029;31;33514;-66
2022/07/12 09:47:43;;;;;;;1.73;0.70;;;;;;;28.73;27.57;100764.09;5588442;31;34766;-68
2022/07/12 09:50:50;;;;;;;0.52;0.30;;;;;;;28.91;27.27;100770.84;5589778;31;34208;-68
2022/07/12 09:53:58;;;;;;;2.50;0.60;;;;;;;29.70;24.95;100772.63;5589840;31;34689;-68
2022/07/12 09:57:04;;;;;;;3.45;0.50;;;;;;;29.00;25.87;100768.38;5589962;31;33923;-69
2022/07/12 10:00:11;;;;;;;0.77;0.50;;;;;;;28.58;26.74;100772.31;5576051;31;32765;-67
2022/07/12 10:03:14;;;;;;;0.77;0.40;;;;;;;28.99;26.09;100761.28;5590504;31;33935;-66
2022/07/12 10:06:30;;;;;;;1.95;0.60;;;;;;;28.45;26.33;100764.72;5589653;31;33948;-67
2022/07/12 10:09:37;;;;;;;2.72;0.60;;;;;;;28.44;26.38;100769.34;5589604;31;34757;-68
2022/07/12 10:12:41;;;;;;;4.20;0.80;;;;;;;27.55;27.86;100755.44;5589842;31;34558;-68
2022/07/12 10:15:45;;;;;;;1.90;0.52;;;;;;;28.24;27.30;100746.72;5589743;31;33913;-68
2022/07/12 10:18:48;;;;;;;1.52;0.50;;;;;;;28.67;26.77;100743.34;5589433;31;34916;-66
2022/07/12 10:21:53;;;;;;;3.03;0.82;;;;;;;26.36;29.35;100745.41;5587368;31;32793;-66
2022/07/12 10:24:56;;;;;;;1.40;0.60;;;;;;;25.96;30.17;100765.78;5588701;31;32464;-66
2022/07/12 10:28:01;;;;;;;2.45;0.50;;;;;;;24.51;32.32;100746.75;5581750;31;219266;-66
2022/07/12 10:31:07;;;;;;;1.83;0.60;;;;;;;23.96;33.31;100739.41;5589529;31;33928;-66
2022/07/12 10:34:24;;;;;;;3.00;0.80;;;;;;;23.76;34.54;100742.63;5589554;31;34003;-68
2022/07/12 10:37:28;;;;;;;1.62;0.57;;;;;;;25.92;30.93;100736.66;5589730;31;35278;-67
2022/07/12 10:40:35;;;;;;;1.30;0.50;;;;;;;27.53;29.31;100725.75;5588884;31;33965;-67
2022/07/12 10:47:17;;;;;;;1.98;0.70;;;;;;;28.39;27.46;100730.31;5589515;31;34635;-68
2022/07/12 10:51:05;;;;;;;1.52;0.60;;;;;;;30.38;24.95;100729.59;5588793;31;34147;-67
2022/07/12 10:54:24;;;;;;;1.52;0.52;;;;;;;29.23;26.52;100724.81;5587844;31;33917;-67
2022/07/12 10:57:45;;;;;;;4.22;0.70;;;;;;;27.15;29.75;100734.38;5589205;31;34621;-67
2022/07/12 11:00:50;;;;;;;2.37;0.60;;;;;;;25.22;33.31;100743.06;5589401;31;33931;-66
2022/07/12 11:04:06;;;;;;;2.00;0.70;;;;;;;24.91;33.49;100741.06;5589383;31;34730;-68
2022/07/12 11:07:10;;;;;;;4.85;0.88;;;;;;;23.92;35.43;100750.97;5589531;31;34021;-67
2022/07/12 11:10:13;;;;;;;1.87;0.60;;;;;;;23.52;40.67;100751.12;5589290;31;33992;-66
2022/07/12 11:13:21;;;;;;;1.15;0.50;;;;;;;22.44;41.86;100749.97;5588186;31;33835;-66
2022/07/12 11:16:29;;;;;;;1.40;0.55;;;;;;;22.22;46.43;100754.31;5589153;31;34930;-67
2022/07/12 11:19:33;;;;;;;1.73;0.60;;;;;;;22.38;43.62;100755.50;5588979;31;34091;-67
2022/07/12 11:22:41;;;;;;;1.98;0.70;;;;;;;23.31;41.39;100756.13;5588991;31;34129;-67
2022/07/12 11:25:59;;;;;;;1.42;0.60;;;;;;;25.71;35.90;100746.53;5589043;31;34720;-68
2022/07/12 11:29:02;;;;;;;1.45;0.73;;;;;;;27.32;32.33;100745.84;5589157;31;34011;-66
2022/07/12 11:32:07;;;;;;;4.62;0.50;;;;;;;29.58;28.27;100740.16;5575413;31;33864;-67
2022/07/12 11:35:25;;;;;;;1.00;0.50;;;;;;;30.54;27.15;100736.56;5588325;31;32522;-67
2022/07/12 11:38:29;;;;;;;1.98;0.75;;;;;;;28.54;28.96;100730.28;5588810;31;34611;-67
2022/07/12 11:41:39;;;;;;;1.25;0.40;;;;;;;27.59;30.75;100712.94;5588841;31;33446;-66
2022/07/12 11:44:46;;;;;;;1.45;0.50;;;;;;;28.82;29.41;100721.47;5589240;31;34348;-66
2022/07/12 11:47:48;;;;;;;1.35;0.55;;;;;;;28.64;28.09;100716.59;5588719;31;34084;-65
2022/07/12 11:50:52;;;;;;;0.93;0.45;;;;;;;29.04;28.53;100706.62;5587974;31;32868;-66
2022/07/12 11:53:55;;;;;;;1.77;0.60;;;;;;;30.36;26.03;100707.16;5590123;31;34097;-67
2022/07/12 11:57:08;;;;;;;0.60;0.40;;;;;;;34.44;20.70;100712.47;5591385;31;33899;-67
2022/07/12 12:00:26;;;;;;;1.87;0.40;;;;;;;32.18;21.21;100701.78;5590807;31;34746;-67
2022/07/12 12:03:29;;;;;;;1.08;0.30;;;;;;;29.18;24.22;100686.56;5590970;31;34585;-66
2022/07/12 12:06:31;;;;;;;2.00;0.45;;;;;;;26.95;27.29;100696.19;5590311;31;33088;-67
2022/07/12 12:09:57;;;;;;;1.40;0.50;;;;;;;25.95;28.89;100696.16;5590113;31;32818;-67
2022/07/12 12:13:01;;;;;;;0.62;0.32;;;;;;;25.27;29.96;100696.91;5590789;31;34255;-68
2022/07/12 12:16:08;;;;;;;0.50;0.30;;;;;;;25.93;29.92;100694.81;5590323;31;33926;-68
2022/07/12 12:19:11;;;;;;;2.80;0.47;;;;;;;27.88;26.50;100685.94;5590765;31;33922;-68
2022/07/12 12:22:28;;;;;;;0.77;0.35;;;;;;;31.42;22.24;100689.31;5590453;31;33987;-66
2022/07/12 12:25:32;;;;;;;0.73;0.45;;;;;;;30.95;22.51;100684.00;5589851;31;34709;-69
2022/07/12 12:28:52;;;;;;;0.62;0.30;;;;;;;29.28;24.39;100683.78;5590450;31;34650;-67
2022/07/12 12:31:58;;;;;;;2.20;0.52;;;;;;;29.62;23.87;100672.88;5590824;31;35244;-66
2022/07/12 12:35:12;;;;;;;0.93;0.43;;;;;;;28.12;25.25;100667.94;5590635;31;34590;-68
2022/07/12 12:38:15;;;;;;;3.55;0.43;;;;;;;29.56;23.45;100693.16;5590895;31;34635;-67
2022/07/12 12:41:22;;;;;;;2.45;0.60;;;;;;;28.92;24.32;100687.81;5576972;31;33268;-67
2022/07/12 12:44:26;;;;;;;0.82;0.40;;;;;;;27.55;25.89;100681.84;5590607;31;34027;-67
2022/07/12 12:47:32;;;;;;;1.02;0.40;;;;;;;25.94;28.54;100680.13;5590091;31;33898;-68
2022/07/12 12:50:38;;;;;;;4.35;0.55;;;;;;;26.49;28.20;100689.72;5590512;31;34052;-67
2022/07/12 12:53:42;;;;;;;3.45;0.40;;;;;;;27.80;25.68;100686.47;5589426;31;34010;-67
2022/07/12 12:56:45;;;;;;;2.28;0.40;;;;;;;31.61;20.65;100678.38;5590760;31;35362;-67
2022/07/12 12:59:47;;;;;;;0.55;0.30;;;;;;;34.72;17.66;100682.75;5590274;31;34144;-68
2022/07/12 13:02:50;;;;;;;1.70;0.30;;;;;;;36.74;15.77;100673.12;5590425;31;34653;-68
2022/07/12 13:05:54;;;;;;;2.28;0.32;;;;;;;38.00;14.49;100677.37;5576039;31;34065;-68
2022/07/12 13:08:56;;;;;;;0.20;0.20;;;;;;;35.41;16.07;100663.50;5589274;31;33092;-68
2022/07/12 13:11:59;;;;;;;2.22;0.30;;;;;;;34.50;16.43;100641.50;5590388;31;33927;-67
2022/07/12 13:15:02;;;;;;;1.17;0.20;;;;;;;33.96;16.60;100649.06;5590442;31;33990;-69
2022/07/12 13:18:05;;;;;;;1.83;0.30;;;;;;;34.28;16.55;100645.16;5589474;31;33317;-68
2022/07/12 13:21:08;;;;;;;1.10;0.28;;;;;;;36.85;14.53;100637.56;5590288;31;34132;-68
2022/07/12 13:24:11;;;;;;;2.15;0.60;;;;;;;34.58;15.67;100646.22;5589559;31;32538;-67
2022/07/12 13:27:15;;;;;;;0.75;0.30;;;;;;;34.46;16.03;100647.66;5590025;31;34412;-68
2022/07/12 13:30:19;;;;;;;1.00;0.32;;;;;;;34.20;16.44;100640.44;5590233;31;33997;-67
2022/07/12 13:33:22;;;;;;;0.65;0.40;;;;;;;36.68;14.40;100640.47;5590082;31;34931;-69
2022/07/12 13:36:25;;;;;;;2.37;0.47;;;;;;;35.26;15.21;100640.78;5589511;31;33872;-68
2022/07/12 13:42:53;;;;;;;0.47;0.22;;;;;;;33.72;16.59;100646.69;5589741;31;35256;-66
2022/07/12 13:45:56;;;;;;;0.85;0.30;;;;;;;33.24;17.25;100649.25;5589991;31;34719;-67
2022/07/12 13:48:59;;;;;;;1.05;0.22;;;;;;;35.98;14.81;100645.50;5590098;31;34085;-68
2022/07/12 13:52:02;;;;;;;1.25;0.40;;;;;;;35.12;14.92;100645.62;5589791;31;34312;-68
2022/07/12 13:55:07;;;;;;;0.47;0.30;;;;;;;35.59;14.77;100637.47;5589018;31;32561;-67
2022/07/12 13:58:10;;;;;;;0.30;0.30;;;;;;;37.72;13.28;100650.28;5589033;31;34846;-67
2022/07/12 14:01:12;;;;;;;1.02;0.50;;;;;;;39.64;12.47;100640.41;5588948;31;32459;-67
2022/07/12 14:04:15;;;;;;;1.00;0.20;;;;;;;38.57;13.12;100639.28;5589690;31;34722;-67
2022/07/12 14:07:18;;;;;;;5.00;0.43;;;;;;;36.13;14.30;100639.44;5589718;31;35303;-68
2022/07/12 14:10:21;;;;;;;0.20;0.20;;;;;;;36.89;13.93;100644.06;5589599;31;33990;-68
2022/07/12 14:13:24;;;;;;;2.47;0.40;;;;;;;33.45;16.51;100639.38;5589089;31;33943;-68
2022/07/12 14:16:27;;;;;;;1.05;0.30;;;;;;;33.63;16.28;100643.06;5588820;31;33813;-67
2022/07/12 14:19:30;;;;;;;0.88;0.30;;;;;;;32.16;18.22;100634.56;5589625;31;34795;-67
2022/07/12 14:22:32;;;;;;;0.90;0.32;;;;;;;33.49;17.02;100639.56;5589597;31;34288;-67
2022/07/12 14:25:35;;;;;;;0.77;0.40;;;;;;;30.22;20.14;100621.38;5588840;31;34037;-67
2022/07/12 14:28:38;;;;;;;0.68;0.30;;;;;;;29.03;21.54;100626.56;5588158;31;32769;-66
2022/07/12 14:31:40;;;;;;;0.52;0.32;;;;;;;28.32;22.53;100629.63;5589563;31;34097;-66
2022/07/12 14:34:44;;;;;;;1.15;0.40;;;;;;;28.58;22.65;100627.63;5589371;31;34402;-69
2022/07/12 14:37:46;;;;;;;1.65;0.60;;;;;;;27.41;23.93;100639.84;5587623;31;32539;-67